sensor_id;sensor_type;location;lat;lon;timestamp;temperature;humidity
67165;SHT31;54093;50.014;19.984;2022-12-07T00:06:00;2.32;92.08
67165;SHT31;54093;50.014;19.984;2022-12-07T00:15:21;2.35;92.22
67165;SHT31;54093;50.014;19.984;2022-12-07T00:24:41;2.35;92.04
67165;SHT31;54093;50.014;19.984;2022-12-07T00:34:02;2.30;92.10
67165;SHT31;54093;50.014;19.984;2022-12-07T00:43:23;2.29;92.02
67165;SHT31;54093;50.014;19.984;2022-12-07T00:52:44;2.30;92.08
67165;SHT31;54093;50.014;19.984;2022-12-07T01:02:05;2.35;92.12
67165;SHT31;54093;50.014;19.984;2022-12-07T01:11:28;2.33;92.25
67165;SHT31;54093;50.014;19.984;2022-12-07T01:21:01;2.36;92.39
67165;SHT31;54093;50.014;19.984;2022-12-07T01:30:23;2.32;92.66
67165;SHT31;54093;50.014;19.984;2022-12-07T01:39:44;2.33;92.57
67165;SHT31;54093;50.014;19.984;2022-12-07T01:49:12;2.33;92.46
67165;SHT31;54093;50.014;19.984;2022-12-07T01:58:35;2.36;92.67
67165;SHT31;54093;50.014;19.984;2022-12-07T02:07:57;2.29;92.28
67165;SHT31;54093;50.014;19.984;2022-12-07T02:17:28;2.19;92.15
67165;SHT31;54093;50.014;19.984;2022-12-07T02:36:33;2.14;92.27
67165;SHT31;54093;50.014;19.984;2022-12-07T02:45:59;2.12;92.07
67165;SHT31;54093;50.014;19.984;2022-12-07T02:55:29;2.12;92.23
67165;SHT31;54093;50.014;19.984;2022-12-07T03:14:39;2.06;91.86
67165;SHT31;54093;50.014;19.984;2022-12-07T03:24:06;2.06;92.21
67165;SHT31;54093;50.014;19.984;2022-12-07T03:33:33;2.09;92.07
67165;SHT31;54093;50.014;19.984;2022-12-07T03:42:58;2.05;92.20
67165;SHT31;54093;50.014;19.984;2022-12-07T03:52:36;2.01;92.34
67165;SHT31;54093;50.014;19.984;2022-12-07T04:02:02;2.02;92.46
67165;SHT31;54093;50.014;19.984;2022-12-07T04:11:23;2.04;92.59
67165;SHT31;54093;50.014;19.984;2022-12-07T04:20:45;2.04;92.82
67165;SHT31;54093;50.014;19.984;2022-12-07T04:30:06;2.11;92.86
67165;SHT31;54093;50.014;19.984;2022-12-07T04:39:30;2.14;93.04
67165;SHT31;54093;50.014;19.984;2022-12-07T04:48:52;2.19;93.10
67165;SHT31;54093;50.014;19.984;2022-12-07T04:58:13;2.22;93.21
67165;SHT31;54093;50.014;19.984;2022-12-07T05:07:34;2.26;93.43
67165;SHT31;54093;50.014;19.984;2022-12-07T05:16:55;2.35;93.59
67165;SHT31;54093;50.014;19.984;2022-12-07T05:26:16;2.39;93.67
67165;SHT31;54093;50.014;19.984;2022-12-07T05:35:37;2.43;93.47
67165;SHT31;54093;50.014;19.984;2022-12-07T05:44:58;2.42;93.19
67165;SHT31;54093;50.014;19.984;2022-12-07T05:54:19;2.37;93.02
67165;SHT31;54093;50.014;19.984;2022-12-07T06:03:40;2.35;93.07
67165;SHT31;54093;50.014;19.984;2022-12-07T06:13:01;2.29;92.83
67165;SHT31;54093;50.014;19.984;2022-12-07T06:22:21;2.23;92.33
67165;SHT31;54093;50.014;19.984;2022-12-07T06:31:42;2.21;92.53
67165;SHT31;54093;50.014;19.984;2022-12-07T06:41:03;2.04;92.16
67165;SHT31;54093;50.014;19.984;2022-12-07T06:50:24;1.97;92.50
67165;SHT31;54093;50.014;19.984;2022-12-07T06:59:45;1.95;92.35
67165;SHT31;54093;50.014;19.984;2022-12-07T07:09:06;2.05;92.43
67165;SHT31;54093;50.014;19.984;2022-12-07T07:18:27;1.99;92.48
67165;SHT31;54093;50.014;19.984;2022-12-07T07:27:48;1.99;92.52
67165;SHT31;54093;50.014;19.984;2022-12-07T07:37:09;1.98;92.61
67165;SHT31;54093;50.014;19.984;2022-12-07T07:46:31;1.95;92.80
67165;SHT31;54093;50.014;19.984;2022-12-07T07:55:54;1.95;92.95
67165;SHT31;54093;50.014;19.984;2022-12-07T08:05:15;1.91;92.86
67165;SHT31;54093;50.014;19.984;2022-12-07T08:14:36;1.85;93.09
67165;SHT31;54093;50.014;19.984;2022-12-07T08:23:57;1.88;93.25
67165;SHT31;54093;50.014;19.984;2022-12-07T08:33:18;1.82;93.19
67165;SHT31;54093;50.014;19.984;2022-12-07T08:42:47;1.87;93.24
67165;SHT31;54093;50.014;19.984;2022-12-07T08:52:08;1.91;93.27
67165;SHT31;54093;50.014;19.984;2022-12-07T09:01:29;1.98;93.35
67165;SHT31;54093;50.014;19.984;2022-12-07T09:10:50;2.04;93.23
67165;SHT31;54093;50.014;19.984;2022-12-07T09:20:12;2.12;93.31
67165;SHT31;54093;50.014;19.984;2022-12-07T09:29:33;2.23;92.75
67165;SHT31;54093;50.014;19.984;2022-12-07T09:38:54;2.37;92.87
67165;SHT31;54093;50.014;19.984;2022-12-07T09:48:22;2.46;92.42
67165;SHT31;54093;50.014;19.984;2022-12-07T09:57:46;2.46;92.20
67165;SHT31;54093;50.014;19.984;2022-12-07T10:07:06;2.46;91.80
67165;SHT31;54093;50.014;19.984;2022-12-07T10:16:38;2.56;92.17
67165;SHT31;54093;50.014;19.984;2022-12-07T10:26:19;2.57;92.17
67165;SHT31;54093;50.014;19.984;2022-12-07T10:35:43;2.61;92.44
67165;SHT31;54093;50.014;19.984;2022-12-07T10:45:13;2.70;92.81
67165;SHT31;54093;50.014;19.984;2022-12-07T11:33:49;3.16;89.30
67165;SHT31;54093;50.014;19.984;2022-12-07T11:52:53;3.31;87.96
67165;SHT31;54093;50.014;19.984;2022-12-07T12:02:18;3.32;86.88
67165;SHT31;54093;50.014;19.984;2022-12-07T12:22:18;3.44;86.13
67165;SHT31;54093;50.014;19.984;2022-12-07T12:31:41;3.53;84.61
67165;SHT31;54093;50.014;19.984;2022-12-07T12:41:02;3.56;84.19
67165;SHT31;54093;50.014;19.984;2022-12-07T12:50:29;3.55;83.76
67165;SHT31;54093;50.014;19.984;2022-12-07T13:09:25;3.51;82.03
67165;SHT31;54093;50.014;19.984;2022-12-07T13:18:47;3.49;81.19
67165;SHT31;54093;50.014;19.984;2022-12-07T13:28:17;3.46;80.68
67165;SHT31;54093;50.014;19.984;2022-12-07T13:37:38;3.48;80.46
67165;SHT31;54093;50.014;19.984;2022-12-07T13:56:36;3.40;81.13
67165;SHT31;54093;50.014;19.984;2022-12-07T14:15:36;3.39;81.23
67165;SHT31;54093;50.014;19.984;2022-12-07T14:34:29;3.18;81.22
67165;SHT31;54093;50.014;19.984;2022-12-07T14:43:50;3.07;79.62
67165;SHT31;54093;50.014;19.984;2022-12-07T14:53:14;3.02;78.87
67165;SHT31;54093;50.014;19.984;2022-12-07T15:02:35;3.01;78.87
67165;SHT31;54093;50.014;19.984;2022-12-07T15:11:56;2.97;79.25
67165;SHT31;54093;50.014;19.984;2022-12-07T15:21:17;2.91;80.78
67165;SHT31;54093;50.014;19.984;2022-12-07T15:30:42;2.91;81.57
67165;SHT31;54093;50.014;19.984;2022-12-07T15:40:04;2.87;81.64
67165;SHT31;54093;50.014;19.984;2022-12-07T15:49:26;2.85;81.92
67165;SHT31;54093;50.014;19.984;2022-12-07T15:58:47;2.85;82.30
67165;SHT31;54093;50.014;19.984;2022-12-07T16:08:08;2.83;81.78
67165;SHT31;54093;50.014;19.984;2022-12-07T16:17:28;2.84;81.89
67165;SHT31;54093;50.014;19.984;2022-12-07T16:26:50;2.85;81.82
67165;SHT31;54093;50.014;19.984;2022-12-07T16:36:12;2.85;81.54
67165;SHT31;54093;50.014;19.984;2022-12-07T16:45:36;2.90;80.91
67165;SHT31;54093;50.014;19.984;2022-12-07T16:54:57;2.94;80.89
67165;SHT31;54093;50.014;19.984;2022-12-07T17:04:18;2.98;79.45
67165;SHT31;54093;50.014;19.984;2022-12-07T17:13:39;3.04;79.11
67165;SHT31;54093;50.014;19.984;2022-12-07T17:23:19;3.02;78.80
67165;SHT31;54093;50.014;19.984;2022-12-07T17:32:40;2.95;78.62
67165;SHT31;54093;50.014;19.984;2022-12-07T17:42:01;2.90;78.78
67165;SHT31;54093;50.014;19.984;2022-12-07T17:51:41;2.81;78.69
67165;SHT31;54093;50.014;19.984;2022-12-07T18:01:20;2.72;79.20
67165;SHT31;54093;50.014;19.984;2022-12-07T18:10:41;2.67;79.14
67165;SHT31;54093;50.014;19.984;2022-12-07T18:20:03;2.64;79.29
67165;SHT31;54093;50.014;19.984;2022-12-07T18:29:24;2.60;78.97
67165;SHT31;54093;50.014;19.984;2022-12-07T18:38:44;2.63;78.88
67165;SHT31;54093;50.014;19.984;2022-12-07T18:48:06;2.63;78.70
67165;SHT31;54093;50.014;19.984;2022-12-07T18:57:31;2.64;78.54
67165;SHT31;54093;50.014;19.984;2022-12-07T19:06:52;2.61;78.62
67165;SHT31;54093;50.014;19.984;2022-12-07T19:16:14;2.60;79.05
67165;SHT31;54093;50.014;19.984;2022-12-07T19:25:35;2.57;79.02
67165;SHT31;54093;50.014;19.984;2022-12-07T19:34:56;2.58;79.56
67165;SHT31;54093;50.014;19.984;2022-12-07T19:44:22;2.54;79.26
67165;SHT31;54093;50.014;19.984;2022-12-07T19:53:45;2.53;79.59
67165;SHT31;54093;50.014;19.984;2022-12-07T20:03:06;2.53;79.56
67165;SHT31;54093;50.014;19.984;2022-12-07T20:12:27;2.52;79.55
67165;SHT31;54093;50.014;19.984;2022-12-07T20:22:07;2.58;79.07
67165;SHT31;54093;50.014;19.984;2022-12-07T20:31:27;2.58;79.29
67165;SHT31;54093;50.014;19.984;2022-12-07T20:40:49;2.65;79.22
67165;SHT31;54093;50.014;19.984;2022-12-07T20:50:10;2.70;78.82
67165;SHT31;54093;50.014;19.984;2022-12-07T20:59:30;2.73;77.91
67165;SHT31;54093;50.014;19.984;2022-12-07T21:08:54;2.79;77.54
67165;SHT31;54093;50.014;19.984;2022-12-07T21:18:15;2.83;76.36
67165;SHT31;54093;50.014;19.984;2022-12-07T21:27:36;2.80;76.22
67165;SHT31;54093;50.014;19.984;2022-12-07T21:36:57;2.83;75.80
67165;SHT31;54093;50.014;19.984;2022-12-07T21:46:19;2.85;75.12
67165;SHT31;54093;50.014;19.984;2022-12-07T21:55:41;2.90;74.77
67165;SHT31;54093;50.014;19.984;2022-12-07T22:05:02;2.91;74.64
67165;SHT31;54093;50.014;19.984;2022-12-07T22:14:23;2.94;74.08
67165;SHT31;54093;50.014;19.984;2022-12-07T22:24:03;2.95;74.53
67165;SHT31;54093;50.014;19.984;2022-12-07T22:33:24;2.95;74.13
67165;SHT31;54093;50.014;19.984;2022-12-07T22:42:44;2.93;74.36
67165;SHT31;54093;50.014;19.984;2022-12-07T22:52:05;2.90;74.46
67165;SHT31;54093;50.014;19.984;2022-12-07T23:01:26;2.94;73.54
67165;SHT31;54093;50.014;19.984;2022-12-07T23:10:48;2.93;73.20
67165;SHT31;54093;50.014;19.984;2022-12-07T23:20:09;2.90;74.15
67165;SHT31;54093;50.014;19.984;2022-12-07T23:29:30;2.88;73.92
67165;SHT31;54093;50.014;19.984;2022-12-07T23:38:52;2.85;74.25
67165;SHT31;54093;50.014;19.984;2022-12-07T23:48:13;2.85;74.67
67165;SHT31;54093;50.014;19.984;2022-12-07T23:57:34;2.85;74.71
